Time;durP1;ratioP1;P1;durP2;ratioP2;P2;SDS_P1;SDS_P2;PMS_P1;PMS_P2;Temp;Humidity;BMP_temperature;BMP_pressure;BME280_temperature;BME280_humidity;BME280_pressure;Samples;Min_cycle;Max_cycle;Signal;HPM_P1;HPM_P2
2022/02/22 00:00:17;;;;;;;1.33;1.17;;;4.40;99.90;4.20;99441.00;;;;4933977;28;104326;-67
2022/02/22 00:02:44;;;;;;;1.97;1.50;;;4.30;99.90;4.20;99433.00;;;;4932441;28;93260;-67
2022/02/22 00:05:12;;;;;;;5.23;1.57;;;4.30;99.90;4.20;99454.00;;;;4915355;28;100116;-67
2022/02/22 00:07:39;;;;;;;1.40;1.10;;;4.40;99.90;4.20;99451.00;;;;4920477;28;93544;-66
2022/02/22 00:10:06;;;;;;;1.20;1.07;;;4.30;99.90;4.20;99448.00;;;;4912297;28;106266;-66
2022/02/22 00:12:32;;;;;;;2.43;1.20;;;4.40;99.90;4.20;99451.00;;;;4925216;28;92235;-66
2022/02/22 00:14:59;;;;;;;1.67;1.10;;;4.40;99.90;4.30;99449.00;;;;4935800;28;92748;-66
2022/02/22 00:17:25;;;;;;;1.73;0.97;;;5.10;99.90;4.30;99470.00;;;;4936701;28;93205;-66
2022/02/22 00:19:50;;;;;;;8.53;1.23;;;4.40;99.90;4.30;99458.00;;;;4949364;28;116668;-66
2022/02/22 00:22:16;;;;;;;2.63;1.33;;;4.70;99.90;4.30;99468.00;;;;4933543;28;110506;-66
2022/02/22 00:24:42;;;;;;;2.93;1.37;;;5.10;99.90;4.30;99462.00;;;;4934749;28;110156;-67
2022/02/22 00:27:07;;;;;;;8.77;1.13;;;4.50;99.90;4.40;99469.00;;;;4923303;28;93145;-67
2022/02/22 00:29:33;;;;;;;1.70;1.23;;;4.50;99.90;4.40;99467.00;;;;4914893;28;121907;-68
2022/02/22 00:31:58;;;;;;;5.67;1.00;;;4.50;99.90;4.40;99459.00;;;;4922288;28;110455;-68
2022/02/22 00:34:24;;;;;;;3.93;0.90;;;4.60;99.90;4.50;99469.00;;;;4934522;28;107301;-68
2022/02/22 00:36:50;;;;;;;9.63;1.57;;;4.60;99.90;4.50;99469.00;;;;4933054;28;121047;-68
2022/02/22 00:39:15;;;;;;;5.17;1.60;;;4.60;99.90;4.50;99472.00;;;;4933517;28;121997;-68
2022/02/22 00:41:41;;;;;;;0.93;0.77;;;4.60;99.90;4.60;99480.00;;;;4934686;28;109979;-68
2022/02/22 00:44:07;;;;;;;0.83;0.63;;;4.70;99.90;4.60;99474.00;;;;4934184;28;93843;-67
2022/02/22 00:46:33;;;;;;;2.60;1.47;;;4.70;99.90;4.60;99488.00;;;;4918530;28;123365;-68
2022/02/22 00:48:59;;;;;;;5.70;1.17;;;4.70;99.90;4.60;99480.00;;;;4915968;28;93649;-67
2022/02/22 00:51:24;;;;;;;2.93;1.50;;;4.80;99.90;4.60;99489.00;;;;4915354;28;93052;-68
2022/02/22 00:53:50;;;;;;;2.97;1.07;;;5.30;99.90;4.60;99492.00;;;;4948656;28;107292;-69
2022/02/22 00:56:16;;;;;;;0.87;0.60;;;4.80;99.90;4.60;99494.00;;;;4934122;28;96300;-68
2022/02/22 00:58:42;;;;;;;1.87;1.27;;;5.30;99.90;4.70;99492.00;;;;4934143;28;111783;-67
2022/02/22 01:01:11;;;;;;;3.37;1.30;;;4.80;99.90;4.60;99505.00;;;;4917958;28;109637;-68
2022/02/22 01:03:36;;;;;;;1.50;0.93;;;4.80;99.90;4.70;99515.00;;;;4916330;28;92752;-68
2022/02/22 01:06:02;;;;;;;1.80;0.77;;;4.80;99.90;4.70;99508.00;;;;4915448;28;122817;-66
2022/02/22 01:08:28;;;;;;;13.23;1.63;;;4.80;99.90;4.70;99523.00;;;;4913715;28;123329;-66
2022/02/22 01:10:53;;;;;;;2.93;1.23;;;4.80;99.90;4.60;99527.00;;;;4913964;28;111119;-66
2022/02/22 01:13:21;;;;;;;1.17;1.07;;;4.80;99.90;4.60;99514.00;;;;4914682;28;109574;-66
2022/02/22 01:15:48;;;;;;;5.07;1.43;;;4.80;99.90;4.60;99534.00;;;;4929239;28;95860;-66
2022/02/22 01:18:13;;;;;;;2.60;1.13;;;4.70;99.90;4.50;99534.00;;;;4915397;28;94030;-67
2022/02/22 01:20:39;;;;;;;3.63;1.13;;;4.70;99.90;4.50;99548.00;;;;4932078;28;110023;-65
2022/02/22 01:23:05;;;;;;;2.00;0.97;;;4.70;99.90;4.50;99547.00;;;;4934086;28;108049;-65
2022/02/22 01:25:30;;;;;;;3.73;1.30;;;5.00;99.90;4.50;99542.00;;;;4932753;28;122127;-65
2022/02/22 01:27:56;;;;;;;1.50;1.00;;;4.60;99.90;4.50;99544.00;;;;4932827;28;94183;-66
2022/02/22 01:30:22;;;;;;;2.00;0.97;;;4.60;99.90;4.40;99547.00;;;;4931569;28;108522;-66
2022/02/22 01:32:47;;;;;;;1.03;0.80;;;4.60;99.90;4.40;99544.00;;;;4933953;28;93930;-66
2022/02/22 01:35:13;;;;;;;3.13;1.23;;;4.60;99.90;4.40;99540.00;;;;4933012;28;123354;-65
2022/02/22 01:37:39;;;;;;;2.20;0.90;;;4.60;99.90;4.40;99547.00;;;;4931934;28;120822;-65
2022/02/22 01:40:06;;;;;;;1.30;0.83;;;4.50;99.90;4.40;99556.00;;;;4932924;28;110774;-65
2022/02/22 01:42:33;;;;;;;0.87;0.70;;;4.50;99.90;4.30;99569.00;;;;4934130;28;92845;-65
2022/02/22 01:44:58;;;;;;;0.50;0.50;;;4.50;99.90;4.30;99571.00;;;;4933704;28;93867;-65
2022/02/22 01:47:24;;;;;;;1.10;0.80;;;4.50;99.90;4.30;99566.00;;;;4926043;28;122249;-65
2022/02/22 01:49:50;;;;;;;1.37;0.60;;;4.50;99.90;4.30;99570.00;;;;4914520;28;91905;-65
2022/02/22 01:52:17;;;;;;;5.07;0.70;;;4.50;99.90;4.30;99561.00;;;;4916489;28;93108;-65
2022/02/22 01:54:44;;;;;;;1.03;0.77;;;4.50;99.90;4.30;99560.00;;;;4914927;28;92838;-65
2022/02/22 01:57:10;;;;;;;4.03;1.10;;;4.50;99.90;4.40;99570.00;;;;4914130;28;93934;-65
2022/02/22 01:59:36;;;;;;;1.93;0.87;;;4.50;99.90;4.40;99567.00;;;;4914726;28;92960;-65
2022/02/22 02:02:02;;;;;;;0.40;0.40;;;4.50;99.90;4.40;99574.00;;;;4913905;28;107753;-66
2022/02/22 02:04:31;;;;;;;0.60;0.50;;;4.50;99.90;4.40;99571.00;;;;4913024;28;112376;-65
2022/02/22 02:06:58;;;;;;;1.67;1.07;;;5.00;99.90;4.40;99573.00;;;;4916116;28;93082;-64
2022/02/22 02:09:24;;;;;;;1.90;0.60;;;4.70;99.90;4.40;99583.00;;;;4914587;28;92858;-65
2022/02/22 02:11:59;;;;;;;2.03;0.60;;;4.60;99.90;4.40;99578.00;;;;4915053;28;92967;-65
2022/02/22 02:14:26;;;;;;;3.73;0.73;;;4.70;99.90;4.40;99582.00;;;;4921924;28;92208;-65
2022/02/22 02:16:54;;;;;;;0.50;0.50;;;4.60;99.90;4.40;99590.00;;;;4916134;28;92762;-65
2022/02/22 02:19:20;;;;;;;1.53;0.70;;;4.60;99.90;4.50;99589.00;;;;4914674;28;92799;-65
2022/02/22 02:21:47;;;;;;;3.83;0.90;;;4.60;99.90;4.40;99598.00;;;;4913589;28;109836;-64
2022/02/22 02:24:20;;;;;;;1.50;0.87;;;4.60;99.90;4.40;99600.00;;;;4913862;28;93034;-64
2022/02/22 02:26:47;;;;;;;1.03;0.70;;;4.60;99.90;4.40;99596.00;;;;4915674;28;92752;-65
2022/02/22 02:29:17;;;;;;;4.17;0.90;;;4.60;99.90;4.50;99599.00;;;;4914463;28;93297;-64
2022/02/22 02:31:46;;;;;;;0.90;0.87;;;4.60;99.90;4.50;99601.00;;;;4916118;28;93104;-64
2022/02/22 02:34:15;;;;;;;6.03;1.13;;;4.70;99.90;4.50;99610.00;;;;4913408;28;94134;-66
2022/02/22 02:36:43;;;;;;;1.43;0.90;;;4.70;99.90;4.50;99623.00;;;;4912984;28;92953;-65
2022/02/22 02:39:11;;;;;;;4.20;0.83;;;4.60;99.90;4.50;99617.00;;;;4914990;28;92030;-65
2022/02/22 02:41:37;;;;;;;3.70;0.70;;;5.00;99.90;4.60;99618.00;;;;4917349;28;93255;-65
2022/02/22 02:44:10;;;;;;;3.77;0.97;;;4.70;99.90;4.60;99626.00;;;;4930414;28;113524;-65
2022/02/22 02:46:37;;;;;;;0.77;0.53;;;4.70;99.90;4.60;99624.00;;;;4930961;28;93885;-66
2022/02/22 02:49:03;;;;;;;3.60;0.87;;;4.70;99.90;4.60;99639.00;;;;4933228;28;93002;-65
2022/02/22 02:51:29;;;;;;;1.60;0.80;;;4.70;99.90;4.60;99641.00;;;;4933308;28;92832;-65
2022/02/22 02:54:11;;;;;;;1.07;0.73;;;4.70;99.90;4.60;99634.00;;;;4932267;28;124437;-64
2022/02/22 02:56:38;;;;;;;1.87;1.20;;;4.80;99.90;4.70;99641.00;;;;4927615;28;92810;-64
2022/02/22 02:59:07;;;;;;;3.90;0.93;;;4.80;99.90;4.70;99642.00;;;;4913470;28;93000;-64
2022/02/22 03:01:35;;;;;;;1.20;0.80;;;4.80;99.90;4.70;99652.00;;;;4913343;28;99450;-63
2022/02/22 03:04:03;;;;;;;1.37;0.90;;;4.80;99.90;4.70;99655.00;;;;4913856;28;92800;-65
2022/02/22 03:06:28;;;;;;;5.60;0.70;;;4.80;99.90;4.70;99651.00;;;;4914472;28;100177;-65
2022/02/22 03:08:54;;;;;;;0.83;0.60;;;4.90;99.90;4.60;99664.00;;;;4913828;28;93391;-66
2022/02/22 03:11:20;;;;;;;4.07;1.00;;;5.40;99.90;4.60;99675.00;;;;4915616;28;93744;-65
2022/02/22 03:13:45;;;;;;;1.77;0.83;;;4.80;99.90;4.60;99664.00;;;;4932112;28;122606;-67
2022/02/22 03:16:11;;;;;;;3.40;1.47;;;4.80;99.90;4.60;99671.00;;;;4931874;28;112394;-67
2022/02/22 03:18:38;;;;;;;1.37;0.57;;;4.80;99.90;4.60;99673.00;;;;4933215;28;92880;-67
2022/02/22 03:21:05;;;;;;;2.10;0.53;;;4.70;99.90;4.60;99672.00;;;;4932896;28;92696;-67
2022/02/22 03:23:31;;;;;;;2.97;0.90;;;4.70;99.90;4.60;99678.00;;;;4928244;28;114870;-66
2022/02/22 03:25:57;;;;;;;1.37;0.90;;;4.70;99.90;4.60;99663.00;;;;4917845;28;93783;-68
2022/02/22 03:28:23;;;;;;;1.20;0.90;;;4.70;99.90;4.50;99679.00;;;;4932669;28;110234;-67
2022/02/22 03:30:49;;;;;;;2.97;1.40;;;4.60;99.90;4.50;99679.00;;;;4914847;28;93000;-67
2022/02/22 03:33:16;;;;;;;1.50;0.87;;;4.70;99.90;4.50;99678.00;;;;4912456;28;93175;-67
2022/02/22 03:35:42;;;;;;;1.70;0.73;;;4.90;99.90;4.50;99685.00;;;;4926796;28;95275;-67
2022/02/22 03:38:09;;;;;;;1.33;0.70;;;4.60;99.90;4.50;99685.00;;;;4914304;28;92836;-67
2022/02/22 03:40:35;;;;;;;2.10;1.40;;;4.60;99.90;4.50;99677.00;;;;4924658;28;92851;-67
2022/02/22 03:43:01;;;;;;;2.10;0.90;;;4.70;99.90;4.50;99691.00;;;;4945810;28;95007;-67
2022/02/22 03:45:27;;;;;;;3.50;0.97;;;4.60;99.90;4.40;99681.00;;;;4938707;28;93611;-67
2022/02/22 03:47:55;;;;;;;1.87;1.37;;;4.60;99.90;4.40;99690.00;;;;4919275;28;110657;-67
2022/02/22 03:50:20;;;;;;;4.53;0.57;;;4.60;99.90;4.40;99694.00;;;;4916609;28;92779;-68
2022/02/22 03:52:46;;;;;;;6.70;1.90;;;5.00;99.90;4.50;99694.00;;;;4916875;28;107969;-67
2022/02/22 03:55:12;;;;;;;1.63;0.77;;;5.00;99.90;4.50;99697.00;;;;4916141;28;121643;-68
2022/02/22 03:57:38;;;;;;;2.43;0.90;;;4.70;99.90;4.50;99709.00;;;;4916501;28;99977;-67
2022/02/22 04:00:11;;;;;;;2.03;1.40;;;4.60;99.90;4.50;99710.00;;;;4915174;28;107538;-67
2022/02/22 04:02:37;;;;;;;3.40;1.17;;;4.60;99.90;4.50;99722.00;;;;4915034;28;92886;-67
2022/02/22 04:05:05;;;;;;;0.87;0.80;;;4.60;99.90;4.50;99732.00;;;;4918086;28;116977;-67
2022/02/22 04:07:35;;;;;;;5.53;1.07;;;4.70;99.90;4.60;99745.00;;;;4933611;28;92884;-67
2022/02/22 04:10:03;;;;;;;1.50;1.03;;;4.70;99.90;4.60;99743.00;;;;4915398;28;107696;-67
2022/02/22 04:12:29;;;;;;;1.27;0.90;;;4.70;99.90;4.60;99760.00;;;;4915796;28;118096;-67
2022/02/22 04:14:54;;;;;;;1.07;0.90;;;4.70;99.90;4.70;99754.00;;;;4915034;28;122069;-69
2022/02/22 04:17:20;;;;;;;3.20;1.10;;;4.80;99.90;4.70;99759.00;;;;4914020;28;109237;-67
2022/02/22 04:19:46;;;;;;;1.27;0.90;;;4.70;99.90;4.70;99757.00;;;;4914943;28;108282;-67
2022/02/22 04:22:11;;;;;;;1.43;1.00;;;4.80;99.90;4.60;99756.00;;;;4916376;28;93365;-66
2022/02/22 04:24:37;;;;;;;3.60;0.83;;;4.80;99.90;4.70;99770.00;;;;4915878;28;93807;-67
2022/02/22 04:27:04;;;;;;;0.90;0.70;;;4.80;99.90;4.70;99772.00;;;;4922040;28;109020;-68
2022/02/22 04:29:30;;;;;;;3.40;1.03;;;4.80;99.90;4.70;99773.00;;;;4935585;28;107988;-67
2022/02/22 04:31:56;;;;;;;1.10;1.00;;;4.80;99.90;4.70;99778.00;;;;4927785;28;121823;-67
2022/02/22 04:34:22;;;;;;;2.83;1.10;;;4.80;99.90;4.70;99789.00;;;;4916241;28;92847;-68
2022/02/22 04:36:48;;;;;;;2.97;1.23;;;4.80;99.90;4.70;99790.00;;;;4926165;28;111175;-68
2022/02/22 04:39:14;;;;;;;4.53;1.30;;;4.80;99.90;4.70;99791.00;;;;4940984;28;92884;-68
2022/02/22 04:41:40;;;;;;;2.77;1.47;;;4.90;99.90;4.70;99788.00;;;;4933444;28;92378;-68
2022/02/22 04:44:34;;;;;;;1.27;1.10;;;4.70;99.90;4.60;99800.00;;;;4933982;28;121296;-67
2022/02/22 04:47:00;;;;;;;2.70;1.30;;;4.80;99.90;4.70;99812.00;;;;4921988;28;93132;-68
2022/02/22 04:49:26;;;;;;;1.87;1.00;;;4.90;99.90;4.70;99813.00;;;;4914641;28;101847;-69
2022/02/22 04:51:51;;;;;;;2.73;1.13;;;5.40;99.90;4.70;99826.00;;;;4914415;28;122541;-70
2022/02/22 04:54:17;;;;;;;4.83;1.20;;;4.80;99.90;4.60;99812.00;;;;4914409;28;122769;-69
2022/02/22 04:56:43;;;;;;;1.23;0.93;;;5.10;99.90;4.60;99835.00;;;;4915852;28;92983;-72
2022/02/22 04:59:08;;;;;;;6.30;1.50;;;4.80;99.90;4.60;99832.00;;;;4913906;28;107526;-71
2022/02/22 05:01:34;;;;;;;6.10;1.77;;;4.70;99.90;4.50;99841.00;;;;4918946;28;122967;-70
2022/02/22 05:04:00;;;;;;;5.93;2.00;;;4.70;99.90;4.50;99854.00;;;;4916590;28;121954;-70
2022/02/22 05:06:25;;;;;;;1.43;1.13;;;4.70;99.90;4.50;99875.00;;;;4932096;28;110951;-69
2022/02/22 05:08:51;;;;;;;11.37;1.63;;;4.60;99.90;4.50;99855.00;;;;4933915;28;108839;-69
2022/02/22 05:11:17;;;;;;;2.67;1.80;;;4.70;99.90;4.50;99872.00;;;;4932956;28;122599;-69
2022/02/22 05:13:42;;;;;;;6.20;2.10;;;5.20;99.90;4.40;99877.00;;;;4933869;28;93917;-68
2022/02/22 05:16:08;;;;;;;4.93;1.93;;;4.60;99.90;4.40;99885.00;;;;4932003;28;110773;-69
2022/02/22 05:18:34;;;;;;;10.87;1.43;;;4.60;99.90;4.40;99881.00;;;;4940697;28;93015;-68
2022/02/22 05:21:00;;;;;;;3.63;1.50;;;4.60;99.90;4.40;99882.00;;;;4931724;28;121085;-67
2022/02/22 05:23:32;;;;;;;6.00;2.07;;;4.60;99.90;4.30;99887.00;;;;4933476;28;122654;-68
2022/02/22 05:25:57;;;;;;;4.20;1.67;;;5.20;99.90;4.30;99895.00;;;;4934707;28;92770;-67
2022/02/22 05:28:26;;;;;;;19.93;1.87;;;4.80;99.90;4.30;99913.00;;;;4931293;28;108800;-68
2022/02/22 05:30:53;;;;;;;2.77;1.60;;;5.10;99.90;4.30;99901.00;;;;4934244;28;93072;-68
2022/02/22 05:33:20;;;;;;;4.77;1.50;;;4.50;99.90;4.30;99911.00;;;;4921469;28;93210;-67
2022/02/22 05:35:51;;;;;;;8.47;1.83;;;4.50;99.90;4.30;99916.00;;;;4913485;28;92929;-68
2022/02/22 05:38:17;;;;;;;4.10;1.70;;;4.40;99.90;4.20;99914.00;;;;4915610;28;93784;-68
2022/02/22 05:40:43;;;;;;;6.00;1.60;;;4.40;99.90;4.20;99917.00;;;;4912412;28;105958;-69
2022/02/22 05:43:10;;;;;;;7.57;2.17;;;4.90;99.90;4.20;99935.00;;;;4914125;28;102346;-68
2022/02/22 05:45:36;;;;;;;12.10;1.77;;;4.90;99.90;4.20;99951.00;;;;4914379;28;92963;-69
2022/02/22 05:48:02;;;;;;;4.07;1.40;;;4.40;99.90;4.10;99957.00;;;;4914616;28;92979;-68
2022/02/22 05:50:28;;;;;;;5.40;1.53;;;4.30;99.90;4.10;99943.00;;;;4912678;28;93567;-67
2022/02/22 05:52:55;;;;;;;7.07;2.03;;;4.30;99.90;4.00;99980.00;;;;4923125;28;93404;-66
2022/02/22 05:55:30;;;;;;;5.20;2.00;;;4.20;99.90;4.00;99983.00;;;;4931045;28;92190;-67
2022/02/22 05:57:55;;;;;;;3.37;1.40;;;4.20;99.90;4.00;100009.00;;;;4927531;28;107632;-67
2022/02/22 06:00:21;;;;;;;2.50;1.03;;;4.20;99.90;4.00;99990.00;;;;4928763;28;123185;-66
2022/02/22 06:02:48;;;;;;;14.53;1.93;;;4.10;99.90;3.90;100010.00;;;;4925309;28;123106;-66
2022/02/22 06:05:13;;;;;;;3.80;1.07;;;4.10;99.90;3.90;100005.00;;;;4930140;28;92787;-67
2022/02/22 06:07:39;;;;;;;2.43;0.97;;;3.50;99.90;3.90;100013.00;;;;4929860;28;110067;-67
2022/02/22 06:10:06;;;;;;;7.83;1.37;;;4.00;99.90;3.80;100013.00;;;;4922092;28;104522;-67
2022/02/22 06:12:32;;;;;;;4.30;0.90;;;4.00;99.90;3.80;100007.00;;;;4925610;28;112139;-66
2022/02/22 06:14:58;;;;;;;9.37;2.20;;;4.00;99.90;3.70;100020.00;;;;4928554;28;93432;-67
2022/02/22 06:17:24;;;;;;;2.80;0.97;;;4.30;99.90;3.70;100028.00;;;;4931136;28;92828;-65
2022/02/22 06:19:50;;;;;;;1.30;0.93;;;3.90;99.90;3.60;100036.00;;;;4929271;28;122614;-67
2022/02/22 06:22:16;;;;;;;8.27;1.07;;;4.70;99.90;3.50;100042.00;;;;4929395;28;115645;-66
2022/02/22 06:24:42;;;;;;;1.93;1.23;;;3.80;99.90;3.40;100056.00;;;;4930427;28;93340;-65
2022/02/22 06:27:08;;;;;;;7.07;1.33;;;3.70;99.90;3.30;100060.00;;;;4927404;28;108754;-66
2022/02/22 06:29:34;;;;;;;2.17;1.40;;;3.60;99.90;3.20;100070.00;;;;4929231;28;121132;-66
2022/02/22 06:32:00;;;;;;;4.73;1.80;;;3.50;99.90;3.20;100079.00;;;;4928060;28;94377;-66
2022/02/22 06:34:26;;;;;;;3.73;1.53;;;3.50;99.90;3.20;100096.00;;;;4926646;28;93220;-65
2022/02/22 06:36:52;;;;;;;22.20;6.30;;;3.40;99.90;3.10;100094.00;;;;4928475;28;93022;-66
2022/02/22 06:39:18;;;;;;;9.37;4.53;;;3.30;99.90;3.10;100098.00;;;;4929544;28;96166;-65
2022/02/22 06:41:43;;;;;;;8.03;3.03;;;3.30;99.90;3.10;100092.00;;;;4928299;28;93031;-67
2022/02/22 06:44:09;;;;;;;7.30;1.63;;;3.30;99.90;3.10;100104.00;;;;4929229;28;109860;-67
2022/02/22 06:46:35;;;;;;;14.27;3.10;;;3.30;99.90;3.20;100085.00;;;;4929544;28;107675;-68
2022/02/22 06:49:00;;;;;;;6.43;1.67;;;3.30;99.90;3.30;100094.00;;;;4928273;28;121526;-67
2022/02/22 06:51:26;;;;;;;7.13;2.57;;;3.40;99.90;3.40;100109.00;;;;4934476;28;122283;-68
2022/02/22 06:53:52;;;;;;;8.17;1.77;;;3.50;99.90;3.50;100106.00;;;;4931318;28;92901;-67
2022/02/22 06:56:18;;;;;;;5.27;1.90;;;3.60;99.90;3.60;100116.00;;;;4928429;28;93463;-67
2022/02/22 06:58:44;;;;;;;8.80;2.53;;;3.70;99.90;3.70;100119.00;;;;4925706;28;94172;-67
2022/02/22 07:01:10;;;;;;;3.30;1.90;;;3.80;99.90;3.80;100121.00;;;;4928672;28;94361;-67
2022/02/22 07:03:36;;;;;;;4.47;2.17;;;3.90;99.90;3.80;100131.00;;;;4929510;28;92859;-68
2022/02/22 07:06:01;;;;;;;13.27;2.33;;;4.20;99.90;3.80;100126.00;;;;4929744;28;93005;-67
2022/02/22 07:08:27;;;;;;;3.37;1.80;;;4.00;99.90;3.90;100129.00;;;;4927779;28;122809;-67
2022/02/22 07:10:53;;;;;;;3.07;1.67;;;4.10;99.90;4.00;100142.00;;;;4926103;28;93345;-68
2022/02/22 07:13:18;;;;;;;18.43;2.43;;;4.10;99.90;4.00;100144.00;;;;4928504;28;92846;-68
2022/02/22 07:15:44;;;;;;;3.27;1.27;;;4.60;99.90;4.00;100152.00;;;;4928306;28;108922;-68
2022/02/22 07:18:10;;;;;;;3.33;1.83;;;4.20;99.90;4.00;100169.00;;;;4925217;28;122146;-69
2022/02/22 07:20:38;;;;;;;3.30;1.90;;;3.90;99.90;4.00;100155.00;;;;4924097;28;93663;-67
2022/02/22 07:23:04;;;;;;;4.03;1.47;;;4.60;99.90;4.00;100167.00;;;;4932496;28;93086;-68
2022/02/22 07:25:31;;;;;;;5.73;2.10;;;4.20;99.90;4.10;100172.00;;;;4925229;28;93089;-67
2022/02/22 07:27:59;;;;;;;7.70;2.23;;;4.20;99.90;4.10;100155.00;;;;4927753;28;114783;-68
2022/02/22 07:30:26;;;;;;;4.93;2.07;;;4.30;99.90;4.20;100169.00;;;;4924285;28;106860;-68
2022/02/22 07:32:58;;;;;;;2.83;1.60;;;4.30;99.90;4.20;100174.00;;;;4927052;28;92150;-68
2022/02/22 07:35:25;;;;;;;6.30;2.00;;;4.30;99.90;4.20;100186.00;;;;4942865;28;92836;-68
2022/02/22 07:37:52;;;;;;;5.20;2.23;;;4.30;99.90;4.20;100193.00;;;;4943284;28;93478;-69
2022/02/22 07:40:20;;;;;;;8.90;1.83;;;4.40;99.90;4.20;100188.00;;;;4939970;28;94828;-68
2022/02/22 07:42:46;;;;;;;5.37;1.80;;;4.40;99.90;4.20;100193.00;;;;4925364;28;92892;-68
2022/02/22 07:45:14;;;;;;;8.77;2.37;;;4.40;99.90;4.30;100190.00;;;;4933084;28;92888;-66
2022/02/22 07:47:40;;;;;;;6.10;1.63;;;5.20;99.90;4.30;100187.00;;;;4931424;28;94245;-68
2022/02/22 07:50:07;;;;;;;6.70;2.27;;;4.40;99.90;4.40;100199.00;;;;4929653;28;101082;-68
2022/02/22 07:52:34;;;;;;;6.77;2.40;;;4.50;99.90;4.60;100197.00;;;;4930257;28;92735;-66
2022/02/22 07:54:59;;;;;;;8.33;2.10;;;5.10;99.90;4.70;100215.00;;;;4931964;28;92800;-67
2022/02/22 07:57:25;;;;;;;11.77;2.47;;;4.70;99.90;4.80;100207.00;;;;4927369;28;93164;-68
2022/02/22 07:59:51;;;;;;;4.63;1.97;;;4.90;99.90;4.80;100214.00;;;;4929883;28;92955;-68
2022/02/22 08:02:17;;;;;;;7.33;2.03;;;4.40;99.90;4.80;100207.00;;;;4930904;28;109475;-67
2022/02/22 08:04:43;;;;;;;3.87;1.33;;;5.00;99.90;4.90;100225.00;;;;4931110;28;93969;-67
2022/02/22 08:07:10;;;;;;;5.47;2.30;;;5.00;99.90;4.90;100225.00;;;;4931519;28;93679;-67
2022/02/22 08:09:37;;;;;;;5.57;2.03;;;5.00;99.90;5.00;100241.00;;;;4930193;28;92842;-66
2022/02/22 08:12:04;;;;;;;10.70;1.97;;;5.10;99.90;5.10;100243.00;;;;4927715;28;99299;-68
2022/02/22 08:14:29;;;;;;;3.53;1.73;;;5.20;99.90;5.30;100230.00;;;;4931368;28;98525;-67
2022/02/22 08:17:00;;;;;;;8.63;2.57;;;5.30;99.90;5.60;100244.00;;;;4930926;28;124231;-67
2022/02/22 08:19:27;;;;;;;5.13;2.40;;;6.20;99.90;5.90;100257.00;;;;4931117;28;93183;-68
2022/02/22 08:21:54;;;;;;;7.77;2.17;;;6.00;99.90;6.00;100252.00;;;;4922719;28;101727;-67
2022/02/22 08:24:22;;;;;;;5.43;2.47;;;6.00;99.90;6.00;100248.00;;;;4927847;28;93092;-68
2022/02/22 08:26:49;;;;;;;9.63;1.87;;;6.10;99.90;6.00;100262.00;;;;4932152;28;93083;-66
2022/02/22 08:29:15;;;;;;;3.97;2.30;;;6.70;99.90;6.00;100266.00;;;;4928522;28;108747;-68
2022/02/22 08:31:41;;;;;;;5.17;2.00;;;6.80;99.90;6.00;100260.00;;;;4926940;28;110879;-67
2022/02/22 08:34:06;;;;;;;5.30;2.50;;;6.40;99.90;5.90;100269.00;;;;4930278;28;107271;-67
2022/02/22 08:36:32;;;;;;;10.40;1.93;;;6.10;99.90;5.90;100262.00;;;;4922310;28;122028;-67
2022/02/22 08:39:01;;;;;;;2.43;1.43;;;6.00;99.90;5.80;100274.00;;;;4929919;28;114556;-66
2022/02/22 08:41:27;;;;;;;8.37;2.03;;;6.00;99.90;5.90;100268.00;;;;4931960;28;92893;-66
2022/02/22 08:43:52;;;;;;;2.07;1.77;;;6.40;99.90;5.90;100271.00;;;;4928903;28;93001;-67
2022/02/22 08:46:20;;;;;;;3.20;2.03;;;6.10;99.90;5.90;100265.00;;;;4929716;28;94813;-66
2022/02/22 08:48:46;;;;;;;1.97;1.43;;;6.10;99.90;6.00;100276.00;;;;4930468;28;92974;-68
2022/02/22 08:51:12;;;;;;;4.73;1.57;;;6.10;99.90;6.10;100276.00;;;;4932066;28;92715;-67
2022/02/22 08:53:38;;;;;;;6.90;2.57;;;6.20;99.90;6.20;100278.00;;;;4930241;28;107579;-67
2022/02/22 08:56:06;;;;;;;4.97;2.43;;;6.30;99.90;6.20;100288.00;;;;4929686;28;92788;-68
2022/02/22 08:58:32;;;;;;;9.03;2.60;;;6.30;99.90;6.10;100293.00;;;;4931333;28;93334;-66
2022/02/22 09:00:58;;;;;;;7.77;2.03;;;6.30;99.90;6.10;100285.00;;;;4930676;28;93158;-66
2022/02/22 09:03:24;;;;;;;7.53;1.60;;;6.50;99.90;6.00;100292.00;;;;4931292;28;93018;-66
2022/02/22 09:05:50;;;;;;;8.23;1.83;;;6.20;99.90;6.00;100283.00;;;;4930796;28;93592;-68
2022/02/22 09:08:16;;;;;;;6.40;1.73;;;6.80;99.90;6.00;100292.00;;;;4929272;28;121775;-67
2022/02/22 09:10:45;;;;;;;4.33;2.37;;;6.50;99.90;6.00;100283.00;;;;4930199;28;108630;-67
2022/02/22 09:13:10;;;;;;;5.07;1.70;;;6.20;99.90;6.00;100300.00;;;;4928614;28;92759;-66
2022/02/22 09:15:37;;;;;;;6.43;1.97;;;6.10;99.90;6.00;100308.00;;;;4929955;28;113288;-68
2022/02/22 09:18:03;;;;;;;5.80;2.47;;;6.20;99.90;6.00;100311.00;;;;4930298;28;93931;-68
2022/02/22 09:20:29;;;;;;;2.10;1.50;;;6.10;99.90;6.00;100323.00;;;;4930477;28;94346;-68
2022/02/22 09:22:56;;;;;;;8.53;2.53;;;6.70;99.90;6.00;100315.00;;;;4931269;28;92770;-69
2022/02/22 09:25:22;;;;;;;10.17;2.23;;;6.10;99.90;5.90;100306.00;;;;4930090;28;93330;-68
2022/02/22 09:27:48;;;;;;;4.90;1.40;;;6.00;99.90;5.90;100305.00;;;;4931552;28;93083;-67
2022/02/22 09:30:17;;;;;;;9.90;2.73;;;6.50;99.90;5.80;100319.00;;;;4930550;28;92795;-69
2022/02/22 09:32:46;;;;;;;2.37;1.53;;;6.00;99.90;5.80;100325.00;;;;4930909;28;93275;-67
2022/02/22 09:35:16;;;;;;;6.33;2.03;;;6.60;99.90;5.80;100324.00;;;;4912603;28;98960;-69
2022/02/22 09:37:42;;;;;;;11.03;2.60;;;6.20;99.90;5.90;100335.00;;;;4924782;28;93108;-66
2022/02/22 09:40:10;;;;;;;2.50;1.80;;;6.70;99.90;5.90;100334.00;;;;4928325;28;97805;-66
2022/02/22 09:42:35;;;;;;;4.93;1.47;;;6.00;99.90;6.00;100330.00;;;;4922601;28;93865;-67
2022/02/22 09:45:06;;;;;;;9.07;2.03;;;6.00;99.90;6.00;100335.00;;;;4928161;28;122831;-67
2022/02/22 09:47:33;;;;;;;8.17;2.37;;;6.10;99.90;6.00;100333.00;;;;4923728;28;92949;-68
2022/02/22 09:49:59;;;;;;;10.07;2.03;;;6.10;99.90;6.00;100323.00;;;;4921137;28;92888;-68
2022/02/22 09:52:25;;;;;;;10.13;2.33;;;6.10;99.90;6.10;100337.00;;;;4927547;28;109246;-67
2022/02/22 09:54:51;;;;;;;8.60;1.87;;;6.20;99.90;6.10;100343.00;;;;4929197;28;113510;-68
2022/02/22 09:57:16;;;;;;;9.30;2.33;;;6.20;99.90;6.20;100343.00;;;;4929392;28;114882;-67
2022/02/22 09:59:43;;;;;;;2.87;1.80;;;6.50;99.90;6.30;100346.00;;;;4929838;28;110732;-67
2022/02/22 10:02:08;;;;;;;3.33;1.77;;;6.90;99.90;6.30;100354.00;;;;4930150;28;93891;-69
2022/02/22 10:04:46;;;;;;;11.07;2.40;;;6.30;99.90;6.30;100345.00;;;;4928741;28;123374;-68
2022/02/22 10:07:12;;;;;;;7.93;2.13;;;6.40;99.90;6.30;100349.00;;;;4929487;28;93973;-68
2022/02/22 10:10:01;;;;;;;8.57;2.23;;;6.40;99.90;6.30;100357.00;;;;4930317;28;93020;-68
2022/02/22 10:12:38;;;;;;;4.80;2.17;;;6.90;99.90;6.20;100359.00;;;;4923968;28;92957;-67
2022/02/22 10:15:07;;;;;;;6.83;1.30;;;6.40;99.90;6.20;100372.00;;;;4928571;28;94486;-68
2022/02/22 10:17:38;;;;;;;6.40;2.83;;;6.30;99.90;6.20;100360.00;;;;4929214;28;93098;-68
2022/02/22 10:20:20;;;;;;;6.47;2.13;;;6.30;99.90;6.20;100372.00;;;;4930090;28;92769;-67
2022/02/22 10:22:48;;;;;;;3.87;1.73;;;6.30;99.90;6.20;100382.00;;;;4927924;28;92841;-67
2022/02/22 10:25:14;;;;;;;6.20;2.53;;;6.50;99.90;6.20;100386.00;;;;4930400;28;93539;-68
2022/02/22 10:27:50;;;;;;;9.50;2.43;;;6.90;99.90;6.30;100384.00;;;;4928324;28;94033;-67
2022/02/22 10:30:39;;;;;;;8.60;2.80;;;6.60;99.90;6.30;100391.00;;;;4929750;28;92965;-66
2022/02/22 10:33:15;;;;;;;14.40;2.10;;;6.40;99.90;6.40;100387.00;;;;4928154;28;94406;-67
2022/02/22 10:35:54;;;;;;;8.53;1.83;;;6.40;99.90;6.50;100385.00;;;;4934113;28;93091;-67
2022/02/22 10:38:25;;;;;;;4.20;2.07;;;6.50;99.90;6.70;100388.00;;;;4925717;28;92899;-67
2022/02/22 10:41:01;;;;;;;3.83;1.37;;;6.70;99.90;6.80;100403.00;;;;4928316;28;93803;-67
2022/02/22 10:43:35;;;;;;;3.07;1.83;;;6.80;99.90;7.00;100393.00;;;;4930014;28;92999;-67
2022/02/22 10:46:04;;;;;;;8.83;2.43;;;7.00;99.90;7.10;100404.00;;;;4927628;28;93167;-67
2022/02/22 10:48:40;;;;;;;4.43;2.27;;;7.40;99.90;7.10;100403.00;;;;4926636;28;109636;-67
2022/02/22 10:51:10;;;;;;;6.47;2.00;;;7.10;99.90;7.20;100396.00;;;;4929826;28;92426;-67
2022/02/22 10:53:40;;;;;;;12.23;2.33;;;7.30;99.90;7.20;100387.00;;;;4929366;28;92824;-67
2022/02/22 10:56:11;;;;;;;9.23;1.77;;;7.30;99.90;7.10;100408.00;;;;4927113;28;93015;-67
2022/02/22 10:58:43;;;;;;;2.03;1.67;;;7.20;99.90;7.00;100422.00;;;;4925040;28;94131;-67
2022/02/22 11:01:16;;;;;;;5.77;2.53;;;7.10;99.90;6.60;100421.00;;;;4934753;28;92665;-67